Pago Pago, AS (96799)

9:58 AM SST on September 24, 2016 (GMT -1100)
Malaeimi | | Change Station

Elev 217 ft 14.32 °S, 170.74 °W | Updated 28 minutes ago

Rain
Rain
78.5 °F
Feels Like 82 °F
N
2.0
Wind Variable Wind from ENE
Gusts 4.0 mph

Today
High -- | Low -- °F
--% Chance of Precip.
Yesterday
High -- | Low -- °F
Precip. -- in
Pressure 29.98 in
Visibility 10.0 miles
Clouds Clear
Heat Index 82 °F
Dew Point 77 °F
Humidity 95%
Rainfall 0.20 in
Snow Depth Not available.
6:10 AM 6:18 PM
Waning Crescent, 34% visible
METAR PHKO 242053Z 20012KT 10SM CLR 31/24 A2998 RMK AO2 SLP152 T03060239 51004
Pressure 29.98 in
Visibility 10.0 miles
Clouds Clear
Heat Index 82 °F
Dew Point 77 °F
Humidity 95%
Rainfall 0.20 in
Snow Depth Not available.
6:10 AM 6:18 PM
Waning Crescent, 34% visible
METAR PHKO 242053Z 20012KT 10SM CLR 31/24 A2998 RMK AO2 SLP152 T03060239 51004

10-Day Weather Forecast

No radar image for this location.
×

Almanac

Astronomy

Sep. 24, 2016 Rise Set
Actual Time
Civil Twilight
Nautical Twilight
Astronomical Twilight
Moon
Length of Visible Light
Length of Day
Tomorrow will be .
, % of the Moon is Illuminated

Today's Extremes

State Highs State Lows

Community

WunderPhotos

Upload Photos

1,941,423 photos uploaded!

WunderBlog® & News

Nearby

Air Quality

  Air Quality AQ Index Pollutant
Not available.

Snow Depth

Station Depth Elevation

Earthquake Activity

City Distance Mag. Time & Date
Minimum magnitude displayed is 2.5.

Coastal Water Temperatures

Place Temperature

Stations

Nearby Weather Stations

Station Location Temp. Windchill Dew Point Humidity Wind Precip. Elev Updated Type
                   

Watches & Warnings

There are currently no watches in effect.